Time;durP1;ratioP1;P1;durP2;ratioP2;P2;SDS_P1;SDS_P2;PMS_P1;PMS_P2;Temp;Humidity;BMP_temperature;BMP_pressure;BME280_temperature;BME280_humidity;BME280_pressure;Samples;Min_cycle;Max_cycle;Signal;HPM_P1;HPM_P2
2024/01/24 00:00:37;;;;;;;6.30;1.17;;;7.40;99.90;;;;;;5056615;28;20428;-71
2024/01/24 00:03:02;;;;;;;4.47;1.00;;;7.30;99.90;;;;;;5059575;28;20181;-71
2024/01/24 00:05:28;;;;;;;1.50;0.67;;;7.20;99.90;;;;;;5069649;28;20184;-71
2024/01/24 00:07:54;;;;;;;4.07;1.50;;;7.30;99.90;;;;;;5059508;28;20225;-71
2024/01/24 00:10:19;;;;;;;3.70;1.50;;;7.50;99.90;;;;;;5054190;28;20333;-71
2024/01/24 00:12:45;;;;;;;4.27;1.00;;;7.30;99.90;;;;;;5061897;28;20188;-71
2024/01/24 00:15:10;;;;;;;2.20;0.60;;;7.50;99.90;;;;;;5050656;28;20219;-71
2024/01/24 00:17:36;;;;;;;2.60;1.13;;;7.40;99.90;;;;;;5053039;28;20289;-70
2024/01/24 00:20:01;;;;;;;2.47;0.90;;;7.50;99.90;;;;;;5068290;28;20217;-71
2024/01/24 00:22:28;;;;;;;1.70;0.67;;;7.40;99.90;;;;;;5055574;28;20185;-70
2024/01/24 00:24:53;;;;;;;2.03;0.70;;;7.40;99.90;;;;;;5073678;28;20240;-71
2024/01/24 00:27:19;;;;;;;2.40;1.20;;;7.40;99.90;;;;;;5065959;28;20499;-71
2024/01/24 00:29:44;;;;;;;4.73;1.00;;;7.60;99.90;;;;;;5055274;28;20634;-71
2024/01/24 00:32:10;;;;;;;2.20;0.87;;;7.70;99.90;;;;;;5055580;28;20200;-71
2024/01/24 00:34:35;;;;;;;2.90;0.60;;;7.50;99.90;;;;;;5067999;28;20255;-71
2024/01/24 00:37:01;;;;;;;4.23;1.20;;;7.60;99.90;;;;;;5055295;28;20854;-71
2024/01/24 00:39:26;;;;;;;7.30;1.27;;;7.70;99.90;;;;;;5068442;28;20495;-71
2024/01/24 00:41:53;;;;;;;5.43;1.40;;;7.70;99.90;;;;;;5064270;28;20213;-71
2024/01/24 00:44:18;;;;;;;1.90;0.83;;;7.90;99.90;;;;;;5054470;28;20703;-71
2024/01/24 00:46:43;;;;;;;3.80;0.80;;;8.00;99.90;;;;;;5054962;28;20428;-69
2024/01/24 00:49:10;;;;;;;3.17;0.70;;;8.00;99.90;;;;;;5067783;28;20186;-72
2024/01/24 00:51:36;;;;;;;7.43;1.13;;;8.00;99.90;;;;;;5055232;28;20232;-70
2024/01/24 00:54:02;;;;;;;2.30;0.90;;;8.00;99.90;;;;;;5068086;28;20921;-69
2024/01/24 00:56:28;;;;;;;3.50;0.70;;;8.10;99.90;;;;;;5062780;28;20416;-70
2024/01/24 00:58:53;;;;;;;9.27;1.13;;;8.10;99.90;;;;;;5054543;28;20646;-70
2024/01/24 01:01:19;;;;;;;1.93;0.97;;;8.10;99.90;;;;;;5065797;28;20190;-71
2024/01/24 01:03:45;;;;;;;2.23;0.90;;;8.10;99.90;;;;;;5060024;28;20177;-70
2024/01/24 01:06:11;;;;;;;1.27;0.57;;;8.10;99.90;;;;;;5074618;28;20925;-70
2024/01/24 01:08:36;;;;;;;10.63;1.17;;;8.10;99.90;;;;;;5059476;28;20199;-70
2024/01/24 01:11:02;;;;;;;5.90;1.23;;;8.20;99.90;;;;;;5064736;28;20271;-70
2024/01/24 01:13:27;;;;;;;2.47;0.83;;;8.10;99.90;;;;;;5060483;28;20342;-71
2024/01/24 01:15:53;;;;;;;3.33;1.47;;;8.20;99.90;;;;;;5074532;28;20185;-70
2024/01/24 01:18:18;;;;;;;4.10;0.77;;;8.10;99.90;;;;;;5060341;28;20213;-70
2024/01/24 01:20:44;;;;;;;1.17;0.50;;;8.00;99.90;;;;;;5074351;28;20573;-70
2024/01/24 01:23:09;;;;;;;2.83;0.50;;;8.10;99.90;;;;;;5060631;28;20185;-70
2024/01/24 01:25:34;;;;;;;2.03;0.83;;;8.20;99.90;;;;;;5064206;28;20665;-70
2024/01/24 01:28:00;;;;;;;1.33;0.63;;;8.20;99.90;;;;;;5054994;28;20226;-70
2024/01/24 01:30:25;;;;;;;1.50;0.70;;;8.20;99.90;;;;;;5052986;28;20182;-69
2024/01/24 01:32:51;;;;;;;5.63;1.30;;;8.20;99.90;;;;;;5056656;28;20189;-71
2024/01/24 01:35:16;;;;;;;5.20;0.70;;;8.20;99.90;;;;;;5073775;28;20215;-71
2024/01/24 01:37:42;;;;;;;6.50;1.00;;;8.10;99.90;;;;;;5070652;28;20213;-71
2024/01/24 01:40:08;;;;;;;3.23;0.60;;;8.10;99.90;;;;;;5053772;28;20610;-71
2024/01/24 01:42:34;;;;;;;4.60;1.50;;;8.10;99.90;;;;;;5067375;28;20220;-71
2024/01/24 01:44:59;;;;;;;2.33;0.93;;;8.20;99.90;;;;;;5063793;28;20423;-71
2024/01/24 01:47:25;;;;;;;1.93;0.83;;;8.30;99.90;;;;;;5057294;28;20363;-71
2024/01/24 01:49:52;;;;;;;2.57;0.97;;;8.20;99.90;;;;;;5053440;28;20185;-71
2024/01/24 01:52:19;;;;;;;2.70;0.90;;;8.20;99.90;;;;;;5053770;28;20192;-71
2024/01/24 01:54:46;;;;;;;4.13;1.23;;;8.10;99.90;;;;;;5063869;28;20442;-71
2024/01/24 01:57:11;;;;;;;7.23;0.87;;;8.10;99.90;;;;;;5056918;28;21113;-70
2024/01/24 01:59:40;;;;;;;2.70;0.90;;;8.10;99.90;;;;;;5053279;28;20428;-70
2024/01/24 02:02:06;;;;;;;2.90;0.60;;;8.00;99.90;;;;;;5063997;28;20190;-70
2024/01/24 02:04:31;;;;;;;8.00;1.10;;;8.00;99.90;;;;;;5064015;28;20415;-70
2024/01/24 02:06:57;;;;;;;1.40;0.73;;;8.00;99.90;;;;;;5060239;28;20433;-71
2024/01/24 02:09:23;;;;;;;3.53;0.93;;;8.00;99.90;;;;;;5063203;28;20228;-70
2024/01/24 02:11:49;;;;;;;1.67;0.70;;;7.90;99.90;;;;;;5067113;28;20193;-71
2024/01/24 02:14:14;;;;;;;12.33;0.70;;;7.80;99.90;;;;;;5053505;28;20304;-71
2024/01/24 02:16:40;;;;;;;1.50;0.90;;;7.80;99.90;;;;;;5053367;28;20565;-70
2024/01/24 02:19:06;;;;;;;4.30;0.60;;;7.60;99.90;;;;;;5063135;28;20534;-70
2024/01/24 02:21:32;;;;;;;3.10;0.70;;;7.60;99.90;;;;;;5073462;28;20189;-70
2024/01/24 02:23:59;;;;;;;4.10;0.87;;;7.60;99.90;;;;;;5071725;28;20601;-70
2024/01/24 02:26:25;;;;;;;3.07;1.00;;;7.50;99.90;;;;;;5057427;28;20478;-71
2024/01/24 02:28:50;;;;;;;2.93;0.80;;;7.50;99.90;;;;;;5054718;28;20416;-71
2024/01/24 02:31:16;;;;;;;5.80;1.20;;;7.50;99.90;;;;;;5054840;28;20186;-71
2024/01/24 02:33:41;;;;;;;1.87;0.80;;;7.50;99.90;;;;;;5055600;28;20264;-70
2024/01/24 02:36:07;;;;;;;7.20;0.73;;;7.60;99.90;;;;;;5073592;28;20280;-71
2024/01/24 02:38:33;;;;;;;3.33;1.37;;;7.60;99.90;;;;;;5074933;28;20188;-72
2024/01/24 02:40:58;;;;;;;3.40;0.83;;;7.60;99.90;;;;;;5052987;28;20844;-71
2024/01/24 02:43:24;;;;;;;2.00;0.70;;;7.60;99.90;;;;;;5052877;28;20220;-71
2024/01/24 02:45:49;;;;;;;10.73;1.00;;;7.60;99.90;;;;;;5068661;28;20641;-71
2024/01/24 02:48:15;;;;;;;1.83;0.90;;;7.70;99.90;;;;;;5063826;28;20262;-71
2024/01/24 02:50:41;;;;;;;3.43;0.80;;;7.60;99.90;;;;;;5054994;28;20637;-71
2024/01/24 02:53:07;;;;;;;3.67;0.87;;;7.50;99.90;;;;;;5067643;28;20182;-71
2024/01/24 02:55:33;;;;;;;7.93;1.47;;;7.50;99.90;;;;;;5052188;28;20184;-71
2024/01/24 02:57:58;;;;;;;4.73;1.67;;;7.50;99.90;;;;;;5052507;28;20456;-71
2024/01/24 03:00:24;;;;;;;8.80;0.70;;;7.50;99.90;;;;;;5055225;28;20205;-71
2024/01/24 03:02:49;;;;;;;3.90;0.80;;;7.70;99.90;;;;;;5072475;28;20629;-71
2024/01/24 03:05:15;;;;;;;7.97;0.87;;;7.80;99.90;;;;;;5054900;28;20475;-71
2024/01/24 03:07:40;;;;;;;4.63;0.70;;;7.80;99.90;;;;;;5052332;28;20676;-71
2024/01/24 03:10:08;;;;;;;1.23;0.60;;;7.90;99.90;;;;;;5054992;28;20390;-72
2024/01/24 03:12:33;;;;;;;1.90;0.77;;;7.80;99.90;;;;;;5061679;28;20189;-71
2024/01/24 03:14:59;;;;;;;4.40;0.97;;;8.00;99.90;;;;;;5055266;28;20428;-71
2024/01/24 03:17:25;;;;;;;1.97;1.03;;;7.90;99.90;;;;;;5071847;28;20567;-72
2024/01/24 03:19:51;;;;;;;6.80;0.87;;;8.00;99.90;;;;;;5058044;28;20207;-71
2024/01/24 03:22:16;;;;;;;1.50;0.63;;;7.90;99.90;;;;;;5062320;28;20184;-71
2024/01/24 03:24:42;;;;;;;3.90;0.60;;;8.00;99.90;;;;;;5051719;28;20180;-71
2024/01/24 03:27:07;;;;;;;5.93;1.67;;;8.20;99.90;;;;;;5051795;28;20185;-72
2024/01/24 03:29:33;;;;;;;1.10;0.50;;;8.20;99.90;;;;;;5068001;28;20172;-71
2024/01/24 03:31:58;;;;;;;1.50;0.70;;;8.20;99.90;;;;;;5062152;28;20185;-71
2024/01/24 03:34:24;;;;;;;3.63;0.80;;;8.20;99.90;;;;;;5064611;28;20182;-71
2024/01/24 03:36:50;;;;;;;1.20;0.63;;;8.20;99.90;;;;;;5051742;28;20188;-72
2024/01/24 03:39:15;;;;;;;4.83;0.90;;;8.30;99.90;;;;;;5063606;28;20630;-71
2024/01/24 03:41:40;;;;;;;1.87;0.80;;;8.30;99.90;;;;;;5062666;28;20190;-71
2024/01/24 03:44:06;;;;;;;1.60;0.77;;;8.40;99.90;;;;;;5050739;28;20209;-71
2024/01/24 03:46:31;;;;;;;1.70;0.80;;;8.40;99.90;;;;;;5060214;28;20188;-71
2024/01/24 03:48:57;;;;;;;1.40;0.60;;;8.40;99.90;;;;;;5068996;28;20181;-71
2024/01/24 03:51:24;;;;;;;3.40;1.63;;;8.50;99.90;;;;;;5060013;28;20699;-71
2024/01/24 03:53:50;;;;;;;1.43;0.70;;;8.50;99.90;;;;;;5057572;28;20242;-71
2024/01/24 03:56:15;;;;;;;5.07;0.90;;;8.50;99.90;;;;;;5062678;28;20424;-71
2024/01/24 03:58:41;;;;;;;3.90;1.33;;;8.60;99.90;;;;;;5052710;28;20288;-72
2024/01/24 04:01:06;;;;;;;5.60;1.00;;;8.60;99.90;;;;;;5051327;28;20188;-72
2024/01/24 04:03:32;;;;;;;3.30;0.80;;;8.70;99.90;;;;;;5064725;28;20225;-71
2024/01/24 04:05:57;;;;;;;3.07;0.80;;;8.60;99.90;;;;;;5051603;28;20668;-72
2024/01/24 04:08:23;;;;;;;4.90;1.73;;;8.80;99.90;;;;;;5051260;28;20200;-71
2024/01/24 04:10:48;;;;;;;5.17;0.97;;;8.80;99.90;;;;;;5060259;28;20231;-71
2024/01/24 04:13:14;;;;;;;5.77;1.20;;;8.80;99.90;;;;;;5055409;28;20670;-71
2024/01/24 04:15:40;;;;;;;6.93;1.73;;;8.90;99.90;;;;;;5059101;28;20226;-71
2024/01/24 04:18:06;;;;;;;4.33;0.80;;;9.00;99.90;;;;;;5071203;28;20211;-71
2024/01/24 04:20:31;;;;;;;3.43;0.90;;;9.00;99.90;;;;;;5070717;28;20329;-71
2024/01/24 04:22:57;;;;;;;1.43;0.70;;;9.00;99.90;;;;;;5070590;28;20264;-71
2024/01/24 04:25:22;;;;;;;2.40;1.03;;;9.00;99.90;;;;;;5062505;28;20177;-71
2024/01/24 04:27:48;;;;;;;1.53;0.60;;;9.00;99.90;;;;;;5052720;28;20625;-71
2024/01/24 04:30:13;;;;;;;4.27;1.03;;;9.00;99.90;;;;;;5062485;28;20201;-71
2024/01/24 04:32:39;;;;;;;7.40;0.73;;;9.10;99.90;;;;;;5052687;28;20234;-71
2024/01/24 04:35:05;;;;;;;2.37;0.70;;;9.00;99.90;;;;;;5070736;28;20201;-71
2024/01/24 04:37:30;;;;;;;2.07;1.03;;;9.10;99.90;;;;;;5069145;28;20323;-71
2024/01/24 04:39:56;;;;;;;1.50;0.67;;;9.10;99.90;;;;;;5054688;28;20507;-71
2024/01/24 04:42:21;;;;;;;7.17;1.13;;;9.30;99.90;;;;;;5065992;28;20181;-71
2024/01/24 04:44:47;;;;;;;14.13;1.30;;;9.10;99.90;;;;;;5057377;28;20383;-72
2024/01/24 04:47:13;;;;;;;2.73;1.03;;;9.20;99.90;;;;;;5052435;28;20269;-72
2024/01/24 04:49:39;;;;;;;1.80;0.90;;;9.20;99.90;;;;;;5062136;28;20186;-71
2024/01/24 04:52:04;;;;;;;8.70;1.00;;;9.30;99.90;;;;;;5064322;28;20187;-71
2024/01/24 04:54:34;;;;;;;2.20;0.70;;;9.30;99.90;;;;;;5050796;28;20454;-71
2024/01/24 04:57:00;;;;;;;2.93;1.00;;;9.30;99.90;;;;;;5059125;28;20182;-71
2024/01/24 04:59:25;;;;;;;1.73;0.80;;;9.30;99.90;;;;;;5041830;28;20439;-71
2024/01/24 05:01:51;;;;;;;4.47;1.03;;;9.40;99.90;;;;;;5059137;28;20188;-71
2024/01/24 05:04:16;;;;;;;2.23;0.80;;;9.30;99.90;;;;;;5052917;28;20185;-71
2024/01/24 05:06:42;;;;;;;2.47;0.80;;;9.40;99.90;;;;;;5053834;28;20265;-71
2024/01/24 05:09:07;;;;;;;1.50;0.87;;;9.60;99.90;;;;;;5057461;28;20217;-71
2024/01/24 05:11:33;;;;;;;2.57;1.30;;;9.50;99.90;;;;;;5055991;28;20182;-71
2024/01/24 05:14:00;;;;;;;4.63;0.93;;;9.40;99.90;;;;;;5074370;28;20269;-72
2024/01/24 05:16:27;;;;;;;3.40;1.47;;;9.40;99.90;;;;;;5060574;28;20178;-71
2024/01/24 05:18:53;;;;;;;4.00;1.27;;;9.40;99.90;;;;;;5065751;28;20479;-71
2024/01/24 05:21:18;;;;;;;3.70;1.03;;;9.40;99.90;;;;;;5069310;28;20917;-72
2024/01/24 05:23:44;;;;;;;3.00;0.90;;;9.50;99.90;;;;;;5074238;28;20223;-71
2024/01/24 05:26:09;;;;;;;2.07;0.73;;;9.50;99.90;;;;;;5059356;28;20194;-71
2024/01/24 05:28:35;;;;;;;3.60;0.90;;;9.50;99.90;;;;;;5060733;28;20264;-71
2024/01/24 05:31:00;;;;;;;1.43;0.60;;;9.50;99.90;;;;;;5060250;28;20280;-72
2024/01/24 05:33:26;;;;;;;2.23;1.20;;;9.60;99.90;;;;;;5065778;28;20193;-71
2024/01/24 05:35:52;;;;;;;4.27;1.03;;;9.50;99.90;;;;;;5059352;28;20202;-71
2024/01/24 05:38:17;;;;;;;2.90;0.97;;;9.50;99.90;;;;;;5065806;28;20209;-71
2024/01/24 05:40:43;;;;;;;3.90;1.10;;;9.50;99.90;;;;;;5067336;28;20227;-71
2024/01/24 05:43:08;;;;;;;4.50;1.30;;;9.60;99.90;;;;;;5053975;28;20178;-71
2024/01/24 05:45:34;;;;;;;6.00;1.03;;;9.60;99.90;;;;;;5067249;28;20189;-71
2024/01/24 05:47:59;;;;;;;3.83;1.33;;;9.60;99.90;;;;;;5073690;28;20570;-71
2024/01/24 05:50:25;;;;;;;1.60;0.73;;;9.60;99.90;;;;;;5059668;28;20189;-71
2024/01/24 05:52:50;;;;;;;2.33;1.10;;;9.60;99.90;;;;;;5066802;28;20227;-72
2024/01/24 05:55:16;;;;;;;2.03;0.80;;;9.50;99.90;;;;;;5066643;28;20193;-71
2024/01/24 05:57:42;;;;;;;4.03;1.67;;;9.50;99.90;;;;;;5054797;28;20597;-72
2024/01/24 06:00:09;;;;;;;1.70;1.00;;;9.40;99.90;;;;;;5052490;28;20190;-71
2024/01/24 06:02:38;;;;;;;3.10;0.83;;;9.40;99.90;;;;;;5061279;28;20222;-71
2024/01/24 06:05:04;;;;;;;2.30;1.13;;;9.50;99.90;;;;;;5056834;28;20768;-71
2024/01/24 06:07:30;;;;;;;1.63;0.70;;;9.60;99.90;;;;;;5062014;28;20423;-71
2024/01/24 06:09:56;;;;;;;1.70;0.80;;;9.60;99.90;;;;;;5057468;28;20563;-71
2024/01/24 06:12:22;;;;;;;9.90;2.13;;;9.70;99.90;;;;;;5062346;28;20510;-71
2024/01/24 06:14:48;;;;;;;5.50;0.90;;;9.60;99.90;;;;;;5058877;28;20185;-72
2024/01/24 06:17:13;;;;;;;9.70;1.07;;;9.60;99.90;;;;;;5073217;28;20657;-71
2024/01/24 06:19:38;;;;;;;2.10;0.90;;;9.60;99.90;;;;;;5059092;28;20261;-71
2024/01/24 06:22:04;;;;;;;2.03;0.90;;;9.60;99.90;;;;;;5064753;28;20197;-71
2024/01/24 06:24:30;;;;;;;6.93;1.10;;;9.60;99.90;;;;;;5066642;28;20627;-72
2024/01/24 06:26:57;;;;;;;2.07;0.50;;;9.70;99.90;;;;;;5061651;28;20181;-71
2024/01/24 06:29:23;;;;;;;1.57;0.83;;;9.80;99.90;;;;;;5059236;28;20424;-71
2024/01/24 06:31:49;;;;;;;2.60;1.10;;;9.80;99.90;;;;;;5067068;28;20461;-71
2024/01/24 06:34:15;;;;;;;2.60;0.87;;;9.80;99.90;;;;;;5055606;28;20178;-71
2024/01/24 06:36:40;;;;;;;1.50;0.53;;;9.90;99.90;;;;;;5061697;28;20839;-71
2024/01/24 06:39:06;;;;;;;1.30;0.50;;;9.80;99.90;;;;;;5059121;28;20208;-71
2024/01/24 06:41:32;;;;;;;2.23;0.80;;;9.90;99.90;;;;;;5063608;28;20182;-71
2024/01/24 06:43:58;;;;;;;1.70;0.97;;;9.90;99.90;;;;;;5064029;28;20270;-72
2024/01/24 06:46:26;;;;;;;2.03;0.80;;;9.90;99.90;;;;;;5063476;28;20976;-72
2024/01/24 06:48:52;;;;;;;1.87;0.60;;;9.90;99.90;;;;;;5065427;28;20224;-72
2024/01/24 06:51:18;;;;;;;3.33;0.87;;;9.90;99.90;;;;;;5061761;28;20463;-72
2024/01/24 06:53:43;;;;;;;2.37;0.90;;;9.90;99.90;;;;;;5069671;28;20776;-72
2024/01/24 06:56:09;;;;;;;2.30;1.13;;;9.90;99.90;;;;;;5061913;28;20209;-72
2024/01/24 06:58:36;;;;;;;3.50;1.13;;;9.90;99.90;;;;;;5056171;28;20209;-72
2024/01/24 07:01:02;;;;;;;4.30;1.00;;;9.90;99.90;;;;;;5052539;28;20180;-72
2024/01/24 07:03:27;;;;;;;4.00;0.80;;;9.90;99.90;;;;;;5064542;28;20425;-72
2024/01/24 07:05:53;;;;;;;5.17;0.97;;;10.00;99.90;;;;;;5063557;28;20240;-71
2024/01/24 07:08:18;;;;;;;3.83;0.70;;;10.00;99.90;;;;;;5065278;28;20181;-72
2024/01/24 07:10:44;;;;;;;1.33;0.53;;;9.90;99.90;;;;;;5059849;28;20266;-72
2024/01/24 07:13:10;;;;;;;1.20;0.50;;;10.00;99.90;;;;;;5058397;28;20216;-73
2024/01/24 07:15:35;;;;;;;3.73;1.00;;;9.90;99.90;;;;;;5063484;28;20650;-73
2024/01/24 07:18:01;;;;;;;2.13;0.90;;;9.90;99.90;;;;;;5064905;28;20258;-73
2024/01/24 07:20:26;;;;;;;1.50;0.77;;;9.90;99.90;;;;;;5060135;28;20177;-74
2024/01/24 07:22:52;;;;;;;1.30;0.50;;;9.90;99.90;;;;;;5058450;28;20217;-74
2024/01/24 07:25:21;;;;;;;2.17;0.70;;;9.80;99.90;;;;;;5071686;28;20654;-74
2024/01/24 07:27:47;;;;;;;1.20;0.60;;;9.80;99.90;;;;;;5057382;28;20186;-74
2024/01/24 07:30:13;;;;;;;1.57;0.60;;;9.80;99.90;;;;;;5062822;28;20420;-74
2024/01/24 07:32:40;;;;;;;1.60;0.50;;;9.90;99.90;;;;;;5064855;28;20525;-74
2024/01/24 07:35:07;;;;;;;1.10;0.53;;;9.90;99.90;;;;;;5059422;28;20441;-74
2024/01/24 07:37:32;;;;;;;2.80;0.77;;;10.00;99.90;;;;;;5069799;28;20466;-73
2024/01/24 07:39:58;;;;;;;3.30;1.10;;;10.00;99.90;;;;;;5059943;28;20422;-73
2024/01/24 07:42:23;;;;;;;1.20;0.60;;;10.00;99.90;;;;;;5058438;28;20188;-73
2024/01/24 07:44:48;;;;;;;10.87;0.87;;;10.00;99.90;;;;;;5058168;28;20204;-73
2024/01/24 07:47:15;;;;;;;3.50;0.70;;;10.00;99.90;;;;;;5064772;28;20200;-73
2024/01/24 07:49:40;;;;;;;1.60;0.60;;;10.10;99.90;;;;;;5059241;28;20189;-73
2024/01/24 07:52:07;;;;;;;1.80;0.60;;;10.00;99.90;;;;;;5057727;28;20426;-73
2024/01/24 07:54:32;;;;;;;1.20;0.60;;;10.10;99.90;;;;;;5063351;28;20189;-74
2024/01/24 07:56:58;;;;;;;5.00;0.70;;;10.10;99.90;;;;;;5065926;28;20423;-73
2024/01/24 07:59:23;;;;;;;1.20;0.50;;;10.20;99.90;;;;;;5030420;28;20236;-73
2024/01/24 08:01:49;;;;;;;1.60;0.53;;;10.20;99.90;;;;;;5048461;28;20185;-73
2024/01/24 08:04:14;;;;;;;1.40;0.73;;;10.20;99.90;;;;;;5061813;28;20632;-73
2024/01/24 08:06:41;;;;;;;2.47;0.87;;;10.30;99.90;;;;;;5064214;28;20230;-73
2024/01/24 08:09:06;;;;;;;1.87;0.73;;;10.30;99.90;;;;;;5054351;28;20229;-73
2024/01/24 08:11:32;;;;;;;4.17;1.00;;;10.30;99.90;;;;;;5066371;28;20411;-73
2024/01/24 08:13:57;;;;;;;1.87;0.60;;;10.30;99.90;;;;;;5062863;28;20196;-73
2024/01/24 08:16:23;;;;;;;2.40;0.50;;;10.40;99.90;;;;;;5066331;28;20189;-73
2024/01/24 08:18:49;;;;;;;1.37;0.60;;;10.30;99.90;;;;;;5063124;28;20213;-73
2024/01/24 08:21:15;;;;;;;1.47;0.60;;;10.30;99.90;;;;;;5065352;28;20213;-73
2024/01/24 08:23:40;;;;;;;4.00;0.60;;;10.30;99.90;;;;;;5050386;28;20224;-73
2024/01/24 08:26:09;;;;;;;1.30;0.50;;;10.30;99.90;;;;;;5064046;28;20447;-73
2024/01/24 08:28:34;;;;;;;1.10;0.40;;;10.40;99.90;;;;;;5050976;28;20607;-73
2024/01/24 08:31:00;;;;;;;2.00;0.60;;;10.40;99.90;;;;;;5058341;28;20428;-73
2024/01/24 08:33:25;;;;;;;1.07;0.40;;;10.40;99.90;;;;;;5070755;28;20200;-73
2024/01/24 08:35:51;;;;;;;1.30;0.60;;;10.40;99.90;;;;;;5069820;28;20181;-73
2024/01/24 08:38:16;;;;;;;1.03;0.40;;;10.50;99.90;;;;;;5051918;28;20276;-73
2024/01/24 08:40:42;;;;;;;1.57;0.50;;;10.50;99.90;;;;;;5068083;28;20188;-73
2024/01/24 08:43:08;;;;;;;2.27;0.83;;;10.60;99.90;;;;;;5055149;28;20190;-73
2024/01/24 08:45:33;;;;;;;1.70;0.70;;;10.60;99.90;;;;;;5068119;28;20223;-73
2024/01/24 08:47:59;;;;;;;1.67;0.83;;;10.60;99.90;;;;;;5054583;28;20828;-73
2024/01/24 08:50:24;;;;;;;1.10;0.50;;;10.50;99.90;;;;;;5055169;28;20584;-73
2024/01/24 08:52:52;;;;;;;1.23;0.60;;;10.60;99.90;;;;;;5066959;28;20184;-73
2024/01/24 08:55:17;;;;;;;1.20;0.50;;;10.60;99.90;;;;;;5054148;28;20268;-73
2024/01/24 08:57:43;;;;;;;1.50;0.70;;;10.60;99.90;;;;;;5056534;28;20555;-73
2024/01/24 09:00:11;;;;;;;1.50;0.70;;;10.60;99.90;;;;;;5054578;28;20189;-73
2024/01/24 09:02:36;;;;;;;1.20;0.50;;;10.60;99.90;;;;;;5054538;28;20428;-73
2024/01/24 09:05:03;;;;;;;1.20;0.50;;;10.70;99.90;;;;;;5067701;28;20419;-73
2024/01/24 09:07:28;;;;;;;1.80;0.47;;;10.70;99.90;;;;;;5054536;28;20256;-73
2024/01/24 09:09:54;;;;;;;1.40;0.50;;;10.80;99.90;;;;;;5056922;28;20551;-73
2024/01/24 09:12:19;;;;;;;1.40;0.60;;;10.80;99.90;;;;;;5054481;28;20268;-73
2024/01/24 09:14:45;;;;;;;1.83;0.63;;;10.90;99.90;;;;;;5055092;28;20634;-73
2024/01/24 09:17:13;;;;;;;5.63;0.90;;;10.90;99.90;;;;;;5066147;28;20192;-73
2024/01/24 09:19:42;;;;;;;2.23;0.70;;;10.90;99.90;;;;;;5055179;28;20189;-73
2024/01/24 09:22:09;;;;;;;1.20;0.50;;;10.80;99.90;;;;;;5066760;28;20419;-73
2024/01/24 09:24:35;;;;;;;1.20;0.50;;;10.70;99.90;;;;;;5071997;28;20419;-73
2024/01/24 09:27:01;;;;;;;1.60;0.60;;;10.60;99.90;;;;;;5062956;28;20461;-73
2024/01/24 09:29:27;;;;;;;5.23;1.03;;;10.60;99.90;;;;;;5058628;28;20182;-73
2024/01/24 09:31:52;;;;;;;1.10;0.50;;;10.50;99.90;;;;;;5053928;28;20954;-73
2024/01/24 09:34:18;;;;;;;1.20;0.53;;;10.40;99.90;;;;;;5067057;28;20184;-73
2024/01/24 09:36:43;;;;;;;1.63;0.57;;;10.40;99.90;;;;;;5062271;28;20192;-73
2024/01/24 09:39:09;;;;;;;1.10;0.50;;;10.40;99.90;;;;;;5060088;28;20302;-73
2024/01/24 09:41:40;;;;;;;1.57;0.50;;;10.40;99.90;;;;;;5074040;28;20533;-73
2024/01/24 09:44:08;;;;;;;9.23;0.63;;;10.30;99.90;;;;;;5068346;28;20272;-73
2024/01/24 09:46:36;;;;;;;1.10;0.50;;;10.30;99.90;;;;;;5073382;28;20420;-73
2024/01/24 09:49:02;;;;;;;1.00;0.50;;;10.40;99.90;;;;;;5059707;28;20616;-73
2024/01/24 09:51:34;;;;;;;1.93;0.80;;;10.40;99.90;;;;;;5063073;28;20904;-73
2024/01/24 09:54:07;;;;;;;1.87;0.63;;;10.60;99.90;;;;;;5053478;28;20427;-73
2024/01/24 09:56:35;;;;;;;2.53;0.60;;;10.60;99.90;;;;;;5053616;28;20420;-73
2024/01/24 09:59:05;;;;;;;1.10;0.50;;;10.70;99.90;;;;;;5048104;28;20480;-73
2024/01/24 10:01:33;;;;;;;1.00;0.40;;;10.70;99.90;;;;;;5046431;28;20458;-73
2024/01/24 10:04:00;;;;;;;1.00;0.43;;;10.80;99.90;;;;;;5059122;28;20942;-73
2024/01/24 10:06:27;;;;;;;1.10;0.50;;;10.70;99.90;;;;;;5060553;28;20720;-73
2024/01/24 10:08:54;;;;;;;1.10;0.50;;;10.70;99.90;;;;;;5069061;28;20445;-73
2024/01/24 10:11:19;;;;;;;1.10;0.50;;;10.70;99.90;;;;;;5061181;28;20486;-73
2024/01/24 10:13:45;;;;;;;1.00;0.40;;;10.70;99.90;;;;;;5073629;28;21259;-73
2024/01/24 10:16:10;;;;;;;1.20;0.50;;;10.80;99.90;;;;;;5061214;28;20192;-73
2024/01/24 10:18:36;;;;;;;1.23;0.60;;;10.70;99.90;;;;;;5066772;28;20218;-73
2024/01/24 10:21:03;;;;;;;1.10;0.50;;;10.70;99.90;;;;;;5063280;28;20526;-73
2024/01/24 10:23:29;;;;;;;4.03;0.60;;;10.70;99.90;;;;;;5059522;28;20177;-73
2024/01/24 10:25:55;;;;;;;1.00;0.40;;;10.70;99.90;;;;;;5061091;28;20450;-73
2024/01/24 10:28:21;;;;;;;1.20;0.50;;;10.80;99.90;;;;;;5066708;28;20806;-73
2024/01/24 10:30:47;;;;;;;1.07;0.47;;;10.80;99.90;;;;;;5060112;28;20196;-73
2024/01/24 10:33:12;;;;;;;1.67;0.50;;;10.90;99.90;;;;;;5066827;28;20646;-73
2024/01/24 10:35:38;;;;;;;1.50;0.70;;;10.90;99.90;;;;;;5066196;28;20427;-73
2024/01/24 10:38:05;;;;;;;1.50;0.57;;;11.00;99.90;;;;;;5053731;28;20236;-73
2024/01/24 10:40:31;;;;;;;1.30;0.60;;;11.00;99.90;;;;;;5066226;28;20461;-73
2024/01/24 10:43:04;;;;;;;1.40;0.80;;;11.00;99.90;;;;;;5059815;28;20778;-73
2024/01/24 10:45:31;;;;;;;1.10;0.50;;;11.00;99.90;;;;;;5067979;28;20542;-73
2024/01/24 10:47:58;;;;;;;1.00;0.40;;;11.10;99.90;;;;;;5073187;28;20795;-73
2024/01/24 10:50:24;;;;;;;1.13;0.50;;;11.10;99.90;;;;;;5059383;28;20464;-73
2024/01/24 10:52:51;;;;;;;1.10;0.50;;;11.10;99.90;;;;;;5063598;28;20427;-73
2024/01/24 10:55:17;;;;;;;1.10;0.40;;;11.10;99.90;;;;;;5071944;28;20419;-73
2024/01/24 10:57:44;;;;;;;2.03;0.60;;;11.10;99.90;;;;;;5054768;28;21019;-73
2024/01/24 11:00:11;;;;;;;1.97;0.70;;;11.00;99.90;;;;;;5039120;28;20644;-73
2024/01/24 11:02:37;;;;;;;1.30;0.50;;;11.10;99.90;;;;;;5060641;28;20828;-73
2024/01/24 11:05:05;;;;;;;1.10;0.40;;;10.90;99.90;;;;;;5070869;28;20478;-73
2024/01/24 11:07:43;;;;;;;1.00;0.40;;;10.80;99.90;;;;;;5061199;28;20888;-73
2024/01/24 11:10:22;;;;;;;1.10;0.50;;;10.80;99.90;;;;;;5059288;28;20790;-73
2024/01/24 11:12:48;;;;;;;1.60;0.60;;;10.70;99.90;;;;;;5061060;28;20428;-72
2024/01/24 11:15:14;;;;;;;1.10;0.50;;;10.70;99.90;;;;;;5065951;28;20577;-73
2024/01/24 11:17:41;;;;;;;1.00;0.40;;;10.70;99.90;;;;;;5064496;28;21184;-73
2024/01/24 11:20:11;;;;;;;1.97;0.50;;;10.80;99.90;;;;;;5058991;28;20254;-73
2024/01/24 11:22:37;;;;;;;1.47;0.50;;;10.80;99.90;;;;;;5057831;28;20800;-73
2024/01/24 11:25:04;;;;;;;1.53;0.50;;;10.90;99.90;;;;;;5065449;28;20424;-73
2024/01/24 11:27:36;;;;;;;1.10;0.40;;;11.00;99.90;;;;;;5052585;28;20432;-73
2024/01/24 11:30:11;;;;;;;1.63;0.80;;;11.20;99.90;;;;;;5059155;28;20438;-73
2024/01/24 11:32:51;;;;;;;1.20;0.50;;;11.40;99.90;;;;;;5065601;28;20906;-73
2024/01/24 11:35:42;;;;;;;1.10;0.50;;;11.60;99.90;;;;;;5062152;28;20556;-73
2024/01/24 11:38:16;;;;;;;2.50;0.50;;;11.70;99.90;;;;;;5045616;28;20781;-73
2024/01/24 11:40:49;;;;;;;1.20;0.40;;;11.70;99.90;;;;;;5066995;28;20430;-73
2024/01/24 11:43:26;;;;;;;1.10;0.40;;;11.60;99.90;;;;;;5060849;28;20922;-73
2024/01/24 11:45:55;;;;;;;1.10;0.40;;;11.60;99.90;;;;;;5069249;28;20423;-72
2024/01/24 11:48:22;;;;;;;1.10;0.40;;;11.30;99.90;;;;;;5051756;28;20998;-72
2024/01/24 11:51:05;;;;;;;1.20;0.50;;;11.10;99.90;;;;;;5065470;28;20424;-72
2024/01/24 11:53:31;;;;;;;1.07;0.47;;;11.00;99.90;;;;;;5064277;28;20445;-72
2024/01/24 11:55:58;;;;;;;3.00;0.83;;;10.90;99.90;;;;;;5058700;28;20935;-72
2024/01/24 11:58:25;;;;;;;1.80;0.80;;;10.80;99.90;;;;;;5058610;28;20312;-72
2024/01/24 12:00:55;;;;;;;2.50;0.67;;;10.70;99.90;;;;;;5052066;28;20488;-72
2024/01/24 12:03:21;;;;;;;1.60;1.00;;;10.60;99.90;;;;;;5064366;28;20426;-72
2024/01/24 12:05:48;;;;;;;1.17;0.67;;;10.60;99.90;;;;;;5059515;28;20758;-72
2024/01/24 12:08:13;;;;;;;1.27;0.60;;;10.50;99.90;;;;;;5058342;28;20452;-72
2024/01/24 12:10:39;;;;;;;1.10;0.50;;;10.50;99.90;;;;;;5061266;28;20509;-72
2024/01/24 12:13:06;;;;;;;1.10;0.50;;;10.40;99.90;;;;;;5071100;28;20184;-72
2024/01/24 12:15:33;;;;;;;1.17;0.50;;;10.40;99.90;;;;;;5063777;28;20464;-72
2024/01/24 12:18:07;;;;;;;1.20;0.50;;;10.40;99.90;;;;;;5065075;28;20561;-72
2024/01/24 12:20:34;;;;;;;1.27;0.73;;;10.40;99.90;;;;;;5060374;28;20447;-72
2024/01/24 12:23:00;;;;;;;4.83;1.23;;;10.40;99.90;;;;;;5057466;28;20440;-72
2024/01/24 12:25:27;;;;;;;1.40;0.60;;;10.40;99.90;;;;;;5071469;28;20427;-72
2024/01/24 12:27:52;;;;;;;1.63;0.80;;;10.30;99.90;;;;;;5069529;28;20434;-72
2024/01/24 12:30:19;;;;;;;1.20;0.60;;;10.20;99.90;;;;;;5057794;28;20423;-72
2024/01/24 12:32:45;;;;;;;1.00;0.50;;;10.20;99.90;;;;;;5065068;28;20200;-72
2024/01/24 12:35:13;;;;;;;1.97;0.70;;;10.10;99.90;;;;;;5060203;28;20497;-71
2024/01/24 12:37:40;;;;;;;1.87;0.87;;;10.10;99.90;;;;;;5058171;28;20458;-72
2024/01/24 12:40:09;;;;;;;1.10;0.50;;;10.00;99.90;;;;;;5067445;28;21010;-71
2024/01/24 12:42:35;;;;;;;4.13;1.03;;;10.00;99.90;;;;;;5057854;28;20593;-72
2024/01/24 12:45:00;;;;;;;3.10;0.70;;;9.90;99.90;;;;;;5065986;28;20431;-72
2024/01/24 12:47:28;;;;;;;1.70;0.80;;;10.00;99.90;;;;;;5057757;28;20420;-72